Time;durP1;ratioP1;P1;durP2;ratioP2;P2;SDS_P1;SDS_P2;PMS_P1;PMS_P2;Temp;Humidity;BMP_temperature;BMP_pressure;BME280_temperature;BME280_humidity;BME280_pressure;Samples;Min_cycle;Max_cycle;Signal;HPM_P1;HPM_P2
2022/02/01 00:02:16;;;;;;;17.50;2.15;;;;;;;3.42;74.96;102286.56;5008932;28;20033;-61
2022/02/01 00:05:03;;;;;;;13.40;2.50;;;;;;;3.44;74.72;102277.06;5008896;28;20022;-61
2022/02/01 00:10:12;;;;;;;14.68;2.47;;;;;;;3.51;74.42;102262.41;5012874;28;20058;-60
2022/02/01 00:12:51;;;;;;;14.27;1.92;;;;;;;3.56;74.05;102258.16;5008383;28;20041;-60
2022/02/01 00:36:37;;;;;;;8.27;1.65;;;;;;;3.66;73.54;102299.19;5027797;28;20044;-60
2022/02/01 00:39:08;;;;;;;13.95;2.25;;;;;;;3.75;73.44;102314.13;5027641;28;20384;-60
2022/02/01 00:41:35;;;;;;;8.57;2.00;;;;;;;3.83;73.14;102324.72;5027988;28;20017;-60
2022/02/01 00:44:02;;;;;;;14.63;2.00;;;;;;;3.86;73.40;102316.94;5027195;28;20498;-61
2022/02/01 00:46:28;;;;;;;14.75;2.80;;;;;;;3.86;73.29;102289.97;5027851;28;20435;-61
2022/02/01 00:48:53;;;;;;;19.60;2.55;;;;;;;3.85;73.37;102265.63;5021735;28;20053;-61
2022/02/01 00:51:19;;;;;;;16.67;1.95;;;;;;;3.78;73.84;102225.53;5014750;28;20040;-60
2022/02/01 00:53:45;;;;;;;10.57;2.22;;;;;;;3.69;74.44;102201.91;5025671;28;20021;-60
2022/02/01 00:56:11;;;;;;;16.80;2.53;;;;;;;3.71;74.74;102192.41;5027535;28;20080;-60
2022/02/01 00:58:38;;;;;;;16.02;1.85;;;;;;;3.66;74.89;102196.63;5021978;28;20026;-60
2022/02/01 01:01:04;;;;;;;9.13;1.85;;;;;;;3.69;74.79;102194.09;5016473;28;20026;-60
2022/02/01 01:03:29;;;;;;;27.88;2.38;;;;;;;3.66;75.39;102207.06;5028029;28;20021;-60
2022/02/01 01:05:54;;;;;;;14.13;1.55;;;;;;;3.66;75.36;102204.47;5015048;28;20084;-60
2022/02/01 01:08:20;;;;;;;17.55;2.53;;;;;;;3.65;75.31;102206.19;5016667;28;20057;-61
2022/02/01 01:10:46;;;;;;;11.38;1.70;;;;;;;3.66;75.49;102225.31;5007726;28;20042;-61
2022/02/01 01:15:45;;;;;;;11.20;1.88;;;;;;;3.68;75.70;102226.22;5047295;28;20045;-61
2022/02/01 01:46:00;;;;;;;21.05;5.35;;;;;;;4.23;72.76;102245.34;5025781;28;20047;-60
2022/02/01 01:53:54;;;;;;;8.45;1.65;;;;;;;4.39;72.10;102249.94;5016699;28;20551;-60
2022/02/01 01:56:20;;;;;;;16.30;1.67;;;;;;;4.40;71.86;102246.47;5007067;28;20030;-61
2022/02/01 01:58:45;;;;;;;12.30;2.17;;;;;;;4.42;72.11;102249.09;5008585;28;20492;-61
2022/02/01 02:01:14;;;;;;;11.10;2.15;;;;;;;4.42;72.03;102238.66;5034240;22;20104;-60
2022/02/01 02:03:47;;;;;;;9.27;1.70;;;;;;;4.40;71.97;102222.13;5019029;28;20044;-60
2022/02/01 02:06:14;;;;;;;18.00;2.47;;;;;;;4.37;72.22;102219.47;5005602;28;20026;-60
2022/02/01 02:08:46;;;;;;;13.80;1.98;;;;;;;4.38;72.39;102218.59;5012025;28;20435;-60
2022/02/01 02:14:23;;;;;;;8.48;1.73;;;;;;;4.42;72.19;102233.44;4989964;28;20502;-60
2022/02/01 02:17:00;;;;;;;20.95;2.33;;;;;;;4.47;71.99;102237.00;5006567;28;20028;-60
2022/02/01 02:19:27;;;;;;;12.45;2.60;;;;;;;4.50;71.81;102231.84;4988471;28;20492;-60
2022/02/01 02:22:00;;;;;;;17.40;2.40;;;;;;;4.56;71.81;102228.44;5018050;28;20092;-60
2022/02/01 02:24:28;;;;;;;10.75;1.95;;;;;;;4.57;71.81;102226.72;5037502;28;20056;-59
2022/02/01 02:26:55;;;;;;;10.52;1.88;;;;;;;4.60;71.60;102211.94;5044334;28;20158;-60
2022/02/01 02:29:21;;;;;;;16.85;2.20;;;;;;;4.68;71.58;102215.56;5040591;28;20049;-61
2022/02/01 02:31:47;;;;;;;17.80;2.70;;;;;;;4.66;71.53;102200.69;5025826;28;20092;-60
2022/02/01 02:34:14;;;;;;;9.48;2.08;;;;;;;4.62;71.80;102202.41;5025029;28;20049;-60
2022/02/01 02:36:47;;;;;;;11.18;2.20;;;;;;;4.67;71.85;102202.47;5025302;28;20057;-61
2022/02/01 02:42:14;;;;;;;13.32;2.20;;;;;;;4.77;71.16;102186.06;5025866;28;20059;-60
2022/02/01 02:47:26;;;;;;;14.63;2.13;;;;;;;4.86;71.28;102197.47;5042454;28;20102;-61
2022/02/01 02:49:52;;;;;;;12.70;2.58;;;;;;;4.85;71.13;102201.81;5037477;28;20391;-60
2022/02/01 02:52:18;;;;;;;11.38;3.25;;;;;;;4.87;71.30;102196.59;5024780;28;20018;-60
2022/02/01 02:54:43;;;;;;;11.38;2.28;;;;;;;4.89;71.28;102190.56;5024781;28;20017;-60
2022/02/01 02:57:09;;;;;;;12.88;2.38;;;;;;;4.89;71.45;102190.56;5007499;28;20029;-60
2022/02/01 02:59:35;;;;;;;17.35;2.40;;;;;;;4.92;71.07;102185.38;5024879;28;20517;-59
2022/02/01 03:02:01;;;;;;;7.57;2.22;;;;;;;4.96;71.02;102178.44;5024381;28;20484;-60
2022/02/01 03:04:29;;;;;;;9.45;2.10;;;;;;;4.94;71.09;102167.09;5007954;28;20448;-60
2022/02/01 03:06:54;;;;;;;12.70;2.42;;;;;;;4.93;70.98;102147.03;5024377;28;20510;-60
2022/02/01 03:09:22;;;;;;;15.30;1.95;;;;;;;4.97;70.81;102143.59;5024338;28;20025;-60
2022/02/01 03:11:56;;;;;;;16.50;2.30;;;;;;;5.01;70.83;102136.69;5025013;28;20124;-59
2022/02/01 03:15:09;;;;;;;16.90;2.55;;;;;;;5.03;70.96;102133.22;5023718;28;20033;-59
2022/02/01 03:19:55;;;;;;;21.75;3.45;;;;;;;4.95;71.83;102114.00;5025357;28;20034;-58
2022/02/01 03:22:28;;;;;;;6.47;1.85;;;;;;;4.98;71.41;102093.13;5024060;28;20029;-59
2022/02/01 03:24:55;;;;;;;15.77;2.83;;;;;;;5.02;70.88;102097.50;5023919;28;20021;-59
2022/02/01 03:27:21;;;;;;;12.43;2.20;;;;;;;5.02;70.92;102105.34;5024436;28;20468;-60
2022/02/01 03:29:47;;;;;;;22.02;3.13;;;;;;;4.96;71.11;102097.44;5024887;28;20033;-61
2022/02/01 03:32:13;;;;;;;14.35;2.97;;;;;;;5.00;71.22;102093.13;5023401;28;20523;-60
2022/02/01 03:34:38;;;;;;;23.83;2.78;;;;;;;5.02;71.07;102094.91;5043087;28;20039;-59
2022/02/01 03:37:04;;;;;;;12.18;2.78;;;;;;;5.02;71.57;102087.06;5044387;28;20029;-60
2022/02/01 03:39:29;;;;;;;19.25;2.95;;;;;;;5.06;71.68;102083.59;5044848;28;20032;-59
2022/02/01 03:41:55;;;;;;;18.55;2.72;;;;;;;5.03;71.68;102080.97;5045626;28;20428;-60
2022/02/01 03:44:20;;;;;;;11.40;2.75;;;;;;;5.10;71.78;102086.25;5044526;28;20052;-60
2022/02/01 03:46:59;;;;;;;13.00;3.03;;;;;;;5.08;71.90;102086.25;5043235;28;20056;-60
2022/02/01 03:49:25;;;;;;;13.68;2.38;;;;;;;5.11;71.87;102080.16;5045032;28;20029;-61
2022/02/01 03:51:50;;;;;;;18.52;2.15;;;;;;;5.08;71.85;102074.94;5043907;28;20063;-58
2022/02/01 03:54:15;;;;;;;14.43;1.95;;;;;;;5.08;71.76;102083.63;5047438;28;20029;-59
2022/02/01 03:56:40;;;;;;;13.05;2.60;;;;;;;5.09;72.03;102094.97;5049399;28;20075;-59
2022/02/01 03:59:06;;;;;;;11.63;2.35;;;;;;;5.11;71.92;102080.16;5048377;28;20028;-59
2022/02/01 04:01:31;;;;;;;21.95;2.58;;;;;;;5.11;72.15;102090.59;5048155;28;20118;-59
2022/02/01 04:03:56;;;;;;;15.15;2.53;;;;;;;5.13;72.31;102084.56;5047456;28;20059;-60
2022/02/01 04:06:22;;;;;;;12.10;2.42;;;;;;;5.19;72.16;102081.13;5047453;28;20829;-59
2022/02/01 04:08:47;;;;;;;13.45;2.97;;;;;;;5.18;72.39;102075.00;5042691;28;20033;-59
2022/02/01 04:11:12;;;;;;;22.83;3.05;;;;;;;5.22;72.82;102059.34;5029316;28;20060;-59
2022/02/01 04:13:38;;;;;;;23.08;3.45;;;;;;;5.23;73.23;102056.75;5046591;28;20017;-59
2022/02/01 04:16:04;;;;;;;20.65;2.80;;;;;;;5.28;73.41;102041.13;5047315;28;20431;-60
2022/02/01 04:18:29;;;;;;;12.40;2.95;;;;;;;5.28;73.96;102043.72;5046420;28;20033;-58
2022/02/01 04:20:55;;;;;;;16.58;3.20;;;;;;;5.28;74.37;102043.72;5029105;28;20021;-60
2022/02/01 04:23:20;;;;;;;15.18;2.60;;;;;;;5.30;74.31;102055.09;5047350;28;20029;-59
2022/02/01 04:25:46;;;;;;;15.15;2.63;;;;;;;5.34;74.48;102045.50;5047136;28;20087;-60
2022/02/01 04:28:12;;;;;;;16.63;3.15;;;;;;;5.34;74.83;102042.88;5045123;28;20382;-60
2022/02/01 04:30:37;;;;;;;19.15;3.63;;;;;;;5.30;75.35;102055.94;5047199;28;20029;-60
2022/02/01 04:33:07;;;;;;;29.00;5.28;;;;;;;5.37;75.61;102040.31;5045907;28;20033;-59
2022/02/01 04:35:33;;;;;;;23.08;3.17;;;;;;;5.41;76.05;102039.47;5046524;28;20525;-60
2022/02/01 04:37:58;;;;;;;24.77;4.25;;;;;;;5.43;76.19;102042.97;5047027;28;20032;-60
2022/02/01 04:40:27;;;;;;;28.88;4.30;;;;;;;5.40;77.17;102027.25;5047293;28;20113;-60
2022/02/01 04:42:52;;;;;;;24.33;3.25;;;;;;;5.44;77.12;102022.06;5045846;28;20029;-59
2022/02/01 04:45:21;;;;;;;29.15;4.65;;;;;;;5.46;77.37;102027.31;5046931;28;20036;-61
2022/02/01 04:47:47;;;;;;;15.67;3.20;;;;;;;5.46;77.73;102036.88;5036397;28;20050;-61
2022/02/01 04:50:18;;;;;;;32.65;4.88;;;;;;;5.47;78.07;102015.97;5027410;28;20079;-60
2022/02/01 04:52:45;;;;;;;19.42;3.80;;;;;;;5.54;77.90;102012.53;5026181;28;20030;-59
2022/02/01 04:55:12;;;;;;;22.05;4.57;;;;;;;5.48;78.37;102002.03;5010145;28;20469;-59
2022/02/01 04:57:47;;;;;;;22.23;3.80;;;;;;;5.49;78.61;101985.50;5026241;28;20356;-60
2022/02/01 05:00:13;;;;;;;28.63;5.30;;;;;;;5.46;78.70;101979.38;5027619;28;20017;-60
2022/02/01 05:02:38;;;;;;;22.30;4.35;;;;;;;5.54;78.41;101975.06;4991390;28;1056337;-61
2022/02/01 05:05:04;;;;;;;22.60;4.70;;;;;;;5.54;78.32;101978.53;5026927;28;20164;-60
2022/02/01 05:07:29;;;;;;;26.52;5.00;;;;;;;5.54;78.62;101965.47;5027159;28;20056;-59
2022/02/01 05:09:58;;;;;;;29.23;5.20;;;;;;;5.59;78.67;101957.66;5027232;28;20091;-60
2022/02/01 05:12:23;;;;;;;18.43;4.90;;;;;;;5.57;78.80;101956.78;5025220;28;20108;-60
2022/02/01 05:14:49;;;;;;;20.67;5.15;;;;;;;5.61;78.66;101935.00;5007288;28;20375;-60
2022/02/01 05:17:16;;;;;;;14.07;4.20;;;;;;;5.65;78.52;101936.75;5007366;28;20062;-58
2022/02/01 05:22:08;;;;;;;27.15;5.18;;;;;;;5.65;78.67;101928.03;5006914;28;20548;-60
2022/02/01 05:24:37;;;;;;;29.98;5.22;;;;;;;5.61;79.09;101937.63;5028003;28;20590;-59
2022/02/01 05:27:05;;;;;;;20.98;4.65;;;;;;;5.61;79.32;101936.75;5029680;28;20033;-60
2022/02/01 05:29:31;;;;;;;20.42;4.90;;;;;;;5.61;79.73;101931.50;5026195;28;20055;-61
2022/02/01 05:31:58;;;;;;;20.85;4.50;;;;;;;5.63;79.81;101922.78;5026337;28;20460;-59
2022/02/01 05:34:23;;;;;;;24.83;5.13;;;;;;;5.57;80.08;101914.94;5037092;28;20025;-59
2022/02/01 05:36:49;;;;;;;21.08;4.55;;;;;;;5.62;80.06;101922.78;5043225;28;20110;-59
2022/02/01 05:39:16;;;;;;;28.63;4.53;;;;;;;5.62;80.52;101922.78;5026776;28;20111;-59
2022/02/01 05:41:42;;;;;;;18.17;4.03;;;;;;;5.60;80.93;101914.09;5027705;28;20049;-60
2022/02/01 05:44:08;;;;;;;24.80;4.72;;;;;;;5.54;81.56;101907.09;5035221;28;20033;-60
2022/02/01 05:46:35;;;;;;;25.08;5.65;;;;;;;5.62;81.46;101886.19;5045893;28;20086;-60
2022/02/01 05:49:01;;;;;;;33.50;5.95;;;;;;;5.54;81.93;101878.34;5044309;28;20485;-61
2022/02/01 05:51:26;;;;;;;24.95;5.65;;;;;;;5.61;82.03;101868.75;5026251;28;20021;-60
2022/02/01 05:53:51;;;;;;;24.13;5.40;;;;;;;5.61;82.25;101869.63;5027043;28;20050;-59
2022/02/01 05:56:17;;;;;;;23.65;4.95;;;;;;;5.64;82.25;101869.66;5027131;28;20140;-61
2022/02/01 05:58:43;;;;;;;23.92;5.95;;;;;;;5.59;82.64;101870.47;5026031;28;20494;-60
2022/02/01 06:01:08;;;;;;;23.08;5.47;;;;;;;5.64;82.75;101879.22;5031772;28;20535;-60
2022/02/01 06:03:33;;;;;;;18.40;5.72;;;;;;;5.68;82.92;101889.72;5045404;28;20041;-60
2022/02/01 06:06:01;;;;;;;26.83;6.55;;;;;;;5.69;83.20;101872.28;5044624;28;20032;-59
2022/02/01 06:08:26;;;;;;;22.23;6.85;;;;;;;5.69;83.29;101882.75;5045513;28;20049;-59
2022/02/01 06:10:51;;;;;;;27.15;7.47;;;;;;;5.75;83.18;101867.06;5046595;28;20426;-60
2022/02/01 06:13:16;;;;;;;25.88;8.20;;;;;;;5.74;83.42;101847.00;5046015;28;20025;-59
2022/02/01 06:15:42;;;;;;;18.60;7.05;;;;;;;5.74;84.01;101849.63;5045419;28;20132;-59
2022/02/01 06:18:07;;;;;;;20.98;7.07;;;;;;;5.73;84.11;101853.13;5046209;28;20036;-60
2022/02/01 06:20:32;;;;;;;21.65;7.25;;;;;;;5.79;83.96;101853.13;5027920;28;20116;-60
2022/02/01 06:22:58;;;;;;;16.20;7.15;;;;;;;5.78;84.05;101843.53;5007798;28;20025;-60
2022/02/01 06:28:07;;;;;;;19.50;6.75;;;;;;;5.81;84.43;101830.44;5025395;28;20036;-61
2022/02/01 06:30:33;;;;;;;29.05;7.82;;;;;;;5.86;84.47;101824.34;5026236;28;20021;-58
2022/02/01 06:32:58;;;;;;;21.23;6.10;;;;;;;5.86;84.71;101837.44;5026186;28;20080;-60
2022/02/01 06:35:24;;;;;;;21.30;6.50;;;;;;;5.88;84.71;101826.13;5025903;28;20049;-59
2022/02/01 06:37:49;;;;;;;25.52;7.97;;;;;;;5.86;84.82;101840.94;5015003;28;20029;-61
2022/02/01 06:40:18;;;;;;;26.25;6.93;;;;;;;5.89;84.79;101835.72;5019625;28;20055;-59
2022/02/01 06:42:43;;;;;;;21.15;5.95;;;;;;;5.90;84.84;101826.13;5011007;28;20476;-59
2022/02/01 06:45:09;;;;;;;28.77;6.53;;;;;;;5.94;84.69;101833.09;5005155;28;20033;-60
2022/02/01 06:47:34;;;;;;;24.02;7.22;;;;;;;5.95;84.75;101829.59;5032581;28;20043;-60
2022/02/01 06:49:59;;;;;;;36.10;7.05;;;;;;;6.01;84.52;101810.41;5029437;28;20581;-63
2022/02/01 06:52:25;;;;;;;18.85;5.57;;;;;;;5.96;84.75;101805.19;5015049;28;20049;-61
2022/02/01 06:54:50;;;;;;;23.45;5.07;;;;;;;6.01;84.91;101813.91;5015835;28;20033;-60
2022/02/01 06:57:15;;;;;;;22.50;5.13;;;;;;;6.05;84.60;101810.47;5015045;28;20798;-62
2022/02/01 06:59:41;;;;;;;24.02;5.07;;;;;;;6.16;84.27;101804.34;5012087;28;20427;-60
2022/02/01 07:02:06;;;;;;;20.85;4.38;;;;;;;6.19;84.41;101797.38;5005887;28;20186;-62
2022/02/01 07:04:32;;;;;;;24.70;4.25;;;;;;;6.16;84.70;101793.88;5005868;28;20550;-62
2022/02/01 07:06:58;;;;;;;17.63;4.15;;;;;;;6.18;84.76;101793.00;5017149;28;20059;-64
2022/02/01 07:09:23;;;;;;;16.45;4.45;;;;;;;6.24;84.91;101776.44;5028624;28;20083;-63
2022/02/01 07:11:48;;;;;;;15.70;4.43;;;;;;;6.22;85.11;101786.03;5026165;28;20018;-62
2022/02/01 07:14:14;;;;;;;15.27;4.00;;;;;;;6.22;85.49;101775.56;5024954;28;20087;-61
2022/02/01 07:16:39;;;;;;;21.77;5.03;;;;;;;6.24;85.49;101786.94;5024795;28;20040;-61
2022/02/01 07:19:04;;;;;;;14.32;4.90;;;;;;;6.25;85.39;101780.81;5024294;28;20025;-62
2022/02/01 07:21:30;;;;;;;15.13;4.97;;;;;;;6.21;85.80;101789.53;5025069;28;20040;-61
2022/02/01 07:23:56;;;;;;;18.60;5.45;;;;;;;6.21;85.95;101784.31;5038512;28;20086;-62
2022/02/01 07:26:22;;;;;;;17.92;5.88;;;;;;;6.12;86.34;101776.44;5045151;28;20460;-62
2022/02/01 07:28:47;;;;;;;18.92;5.30;;;;;;;6.21;86.17;101781.69;5045610;28;20025;-63
2022/02/01 07:31:13;;;;;;;13.10;5.28;;;;;;;6.17;86.44;101774.72;5049541;28;20029;-61
2022/02/01 07:33:39;;;;;;;11.45;5.20;;;;;;;6.16;86.57;101767.72;5048087;28;20328;-62
2022/02/01 07:36:05;;;;;;;15.98;5.20;;;;;;;6.11;86.73;101769.47;5048676;28;20065;-61
2022/02/01 07:38:31;;;;;;;6.22;4.15;;;;;;;6.15;86.89;101758.13;5047779;28;20033;-61
2022/02/01 07:40:57;;;;;;;6.38;3.65;;;;;;;6.19;86.91;101746.78;5023953;28;20033;-61
2022/02/01 07:43:31;;;;;;;6.05;3.53;;;;;;;6.23;86.81;101751.13;5008916;28;20026;-61
2022/02/01 07:46:09;;;;;;;7.75;3.17;;;;;;;6.27;86.77;101733.69;5008929;28;20034;-61
2022/02/01 07:48:35;;;;;;;6.90;3.00;;;;;;;6.26;86.78;101732.81;5023337;28;20167;-60
2022/02/01 07:51:00;;;;;;;6.20;3.40;;;;;;;6.26;86.77;101719.72;5027677;28;20017;-63
2022/02/01 07:53:26;;;;;;;7.13;3.42;;;;;;;6.32;86.69;101713.59;5013140;28;20103;-61
2022/02/01 07:55:51;;;;;;;9.55;3.92;;;;;;;6.37;86.60;101722.34;5009151;28;20030;-61
2022/02/01 07:58:16;;;;;;;8.63;4.05;;;;;;;6.35;86.84;101715.38;5008233;28;20022;-62
2022/02/01 08:00:42;;;;;;;8.93;4.55;;;;;;;6.34;86.59;101724.94;5009039;28;20037;-61
2022/02/01 08:03:09;;;;;;;6.97;3.10;;;;;;;6.31;86.97;101740.66;5022106;28;20056;-60
2022/02/01 08:05:34;;;;;;;5.45;2.97;;;;;;;6.35;87.25;101725.84;5048778;28;20369;-61
2022/02/01 08:08:01;;;;;;;12.60;3.22;;;;;;;6.37;87.15;101718.81;5018161;28;20499;-62
2022/02/01 08:10:33;;;;;;;13.00;3.85;;;;;;;6.42;86.96;101704.00;5017688;28;20029;-65
2022/02/01 08:21:28;;;;;;;8.00;2.80;;;;;;;6.54;86.91;101727.50;4994001;28;20097;-57
2022/02/01 08:23:53;;;;;;;12.85;2.80;;;;;;;6.48;87.20;101716.19;5027358;28;20030;-62
2022/02/01 08:26:20;;;;;;;17.17;3.25;;;;;;;6.49;87.34;101708.34;5024718;28;20038;-62
2022/02/01 08:28:46;;;;;;;12.75;3.25;;;;;;;6.48;87.52;101705.72;5014536;28;20024;-61
2022/02/01 08:31:11;;;;;;;14.27;2.92;;;;;;;6.47;87.54;101699.59;5002396;28;20399;-61
2022/02/01 08:33:38;;;;;;;16.02;3.22;;;;;;;6.57;87.14;101693.47;5005540;28;20128;-63
2022/02/01 08:36:04;;;;;;;16.73;3.30;;;;;;;6.60;87.02;101689.97;4987798;28;20132;-62
2022/02/01 08:38:29;;;;;;;12.70;3.05;;;;;;;6.61;87.04;101691.72;5004576;28;20727;-62
2022/02/01 08:40:54;;;;;;;11.77;3.00;;;;;;;6.67;86.75;101669.88;4992757;28;20025;-62
2022/02/01 08:43:20;;;;;;;14.65;4.20;;;;;;;6.63;86.93;101657.66;4984924;28;20080;-63
2022/02/01 08:45:48;;;;;;;13.23;2.88;;;;;;;6.61;87.05;101648.94;4998096;28;20026;-61
2022/02/01 08:48:13;;;;;;;9.98;3.25;;;;;;;6.66;87.00;101636.69;5005720;28;20045;-61
2022/02/01 08:50:39;;;;;;;14.43;3.22;;;;;;;6.67;86.85;101626.22;4987817;28;20034;-62
2022/02/01 08:55:50;;;;;;;14.77;3.53;;;;;;;6.68;86.97;101629.69;4985809;28;20046;-61
2022/02/01 08:58:16;;;;;;;11.02;3.42;;;;;;;6.61;87.50;101625.38;4984585;28;20460;-61
2022/02/01 09:00:42;;;;;;;7.97;4.35;;;;;;;6.64;87.46;101618.38;4997215;28;20467;-60
2022/02/01 09:03:07;;;;;;;17.92;5.63;;;;;;;6.66;87.35;101642.81;5002702;28;20025;-61
2022/02/01 09:05:33;;;;;;;15.57;5.50;;;;;;;6.63;87.45;101615.75;4999144;28;20047;-62
2022/02/01 09:08:01;;;;;;;14.35;4.47;;;;;;;6.61;87.62;101607.91;5012059;28;20025;-62
2022/02/01 09:10:27;;;;;;;14.70;4.55;;;;;;;6.70;87.35;101612.22;5000148;28;20041;-61
2022/02/01 09:12:53;;;;;;;17.58;5.07;;;;;;;6.64;87.57;101610.53;4999917;28;20458;-62
2022/02/01 09:15:18;;;;;;;11.05;4.80;;;;;;;6.68;87.84;101608.75;4986599;28;20116;-62
2022/02/01 09:17:44;;;;;;;17.60;5.43;;;;;;;6.73;87.60;101595.63;5003632;28;20116;-62
2022/02/01 09:20:09;;;;;;;17.85;5.78;;;;;;;6.66;87.70;101576.47;5002143;28;20026;-62
2022/02/01 09:22:35;;;;;;;10.10;5.05;;;;;;;6.73;87.62;101551.97;5002584;28;20025;-62
2022/02/01 09:25:00;;;;;;;14.40;4.45;;;;;;;6.78;87.53;101537.13;4989212;28;20061;-61
2022/02/01 09:27:25;;;;;;;19.98;5.70;;;;;;;6.83;87.49;101532.69;5001349;28;20107;-60
2022/02/01 09:29:51;;;;;;;21.05;5.53;;;;;;;6.86;87.31;101549.28;4995459;28;20126;-60
2022/02/01 09:32:16;;;;;;;16.75;5.00;;;;;;;6.91;87.27;101547.47;4995009;28;20025;-60
2022/02/01 09:34:42;;;;;;;17.88;5.63;;;;;;;6.93;87.07;101566.69;4997613;28;20041;-59
2022/02/01 09:37:07;;;;;;;15.13;5.00;;;;;;;6.88;87.35;101544.88;4997973;28;20038;-60
2022/02/01 09:39:33;;;;;;;15.90;5.55;;;;;;;6.88;87.38;101523.94;5001110;28;20033;-61
2022/02/01 09:42:00;;;;;;;12.18;5.40;;;;;;;6.91;87.51;101521.28;5001873;28;20886;-61
2022/02/01 09:44:26;;;;;;;20.23;5.32;;;;;;;6.91;87.46;101521.28;5001168;28;20025;-60
2022/02/01 09:46:53;;;;;;;19.77;5.05;;;;;;;6.93;87.44;101530.00;5000087;28;20041;-62
2022/02/01 09:49:22;;;;;;;17.90;5.00;;;;;;;6.94;87.50;101527.38;5003700;28;20025;-62
2022/02/01 09:51:51;;;;;;;14.95;4.40;;;;;;;7.01;87.48;101525.56;5002695;28;20426;-60
2022/02/01 09:54:17;;;;;;;20.95;6.00;;;;;;;6.92;87.65;101542.25;5003990;28;20021;-61
2022/02/01 09:56:42;;;;;;;26.48;6.32;;;;;;;6.96;87.79;101522.13;4993405;28;20048;-60
2022/02/01 09:59:19;;;;;;;22.67;5.80;;;;;;;7.01;87.74;101522.94;5002752;28;20117;-60
2022/02/01 10:01:46;;;;;;;21.77;5.05;;;;;;;7.07;87.65;101517.66;5002018;28;20038;-61
2022/02/01 10:04:12;;;;;;;25.73;5.35;;;;;;;7.08;87.59;101522.03;5001766;28;20022;-61
2022/02/01 10:06:39;;;;;;;32.03;6.35;;;;;;;7.05;87.74;101514.19;5002356;28;20017;-60
2022/02/01 10:09:13;;;;;;;23.58;5.80;;;;;;;7.12;87.56;101528.13;5002340;28;20530;-60
2022/02/01 10:11:41;;;;;;;24.63;6.05;;;;;;;7.13;87.33;101531.63;4995691;28;20041;-60
2022/02/01 10:14:09;;;;;;;17.58;5.50;;;;;;;7.13;87.41;101542.09;4976129;28;20026;-59
2022/02/01 10:16:42;;;;;;;25.02;6.93;;;;;;;7.13;87.49;101539.47;4994076;28;20180;-60
2022/02/01 10:19:12;;;;;;;22.23;5.55;;;;;;;7.23;87.14;101542.88;5001212;28;20109;-60
2022/02/01 10:21:52;;;;;;;24.40;6.75;;;;;;;7.19;87.22;101518.44;5000907;28;20550;-60
2022/02/01 10:24:52;;;;;;;34.65;6.10;;;;;;;7.30;86.62;101523.59;5003079;28;20104;-61
2022/02/01 10:27:19;;;;;;;27.95;5.82;;;;;;;7.29;86.70;101516.63;4939691;28;20146;-60
2022/02/01 10:30:06;;;;;;;25.42;6.30;;;;;;;7.39;86.38;101528.75;4983106;28;20132;-61
2022/02/01 10:32:52;;;;;;;22.45;6.47;;;;;;;7.46;85.98;101525.19;4998023;28;20064;-60
2022/02/01 10:38:04;;;;;;;37.25;6.57;;;;;;;7.52;85.62;101529.50;5002487;28;20044;-61
2022/02/01 10:40:47;;;;;;;24.73;5.40;;;;;;;7.52;85.39;101518.13;4995569;28;20132;-60
2022/02/01 10:43:22;;;;;;;31.75;6.68;;;;;;;7.50;85.39;101505.06;5000991;28;20041;-60
2022/02/01 10:45:49;;;;;;;30.67;5.90;;;;;;;7.52;85.39;101511.13;5001890;28;20037;-60
2022/02/01 10:48:16;;;;;;;32.00;5.35;;;;;;;7.50;85.43;101512.94;5002458;28;20851;-61
2022/02/01 10:50:43;;;;;;;20.20;5.63;;;;;;;7.54;85.24;101506.75;4995634;28;20096;-60
2022/02/01 10:53:18;;;;;;;24.95;5.22;;;;;;;7.52;85.05;101507.63;5002879;28;20036;-61
2022/02/01 10:55:45;;;;;;;22.08;4.70;;;;;;;7.62;84.72;101532.03;5002684;28;20037;-61
2022/02/01 10:58:11;;;;;;;25.17;4.78;;;;;;;7.64;84.35;101533.75;5002243;28;20064;-61
2022/02/01 11:00:37;;;;;;;23.20;5.45;;;;;;;7.68;84.35;101531.97;5008020;28;20057;-60
2022/02/01 11:03:03;;;;;;;30.35;4.90;;;;;;;7.70;84.11;101532.81;4992734;28;20049;-60
2022/02/01 11:05:29;;;;;;;31.25;5.63;;;;;;;7.79;83.89;101521.34;4993756;28;20079;-60
2022/02/01 11:07:54;;;;;;;21.33;4.45;;;;;;;7.86;83.05;101532.66;5002730;28;20060;-60
2022/02/01 11:10:20;;;;;;;25.40;5.32;;;;;;;7.92;82.79;101537.84;5000642;28;20029;-60
2022/02/01 11:12:45;;;;;;;27.70;5.28;;;;;;;7.96;82.40;101514.16;4989053;28;20112;-60
2022/02/01 11:15:18;;;;;;;18.42;4.30;;;;;;;8.01;82.38;101521.09;4996397;28;20071;-59
2022/02/01 11:17:49;;;;;;;17.70;4.05;;;;;;;8.09;82.29;101509.63;5002676;28;20150;-60
2022/02/01 11:20:25;;;;;;;30.38;3.97;;;;;;;8.12;81.95;101503.47;5001419;28;20021;-62
2022/02/01 11:23:01;;;;;;;20.70;4.47;;;;;;;8.17;81.75;101492.91;4990215;28;20087;-60
2022/02/01 11:25:29;;;;;;;19.45;4.00;;;;;;;8.20;81.96;101516.50;5001669;28;20083;-60
2022/02/01 11:30:39;;;;;;;17.17;4.32;;;;;;;8.36;81.17;101497.91;5000120;28;20053;-61
2022/02/01 11:33:07;;;;;;;25.15;4.20;;;;;;;8.39;81.11;101484.72;4998345;28;20479;-62
2022/02/01 11:35:32;;;;;;;13.93;4.05;;;;;;;8.38;80.85;101496.13;4991730;28;20065;-61
2022/02/01 11:38:05;;;;;;;23.75;4.45;;;;;;;8.43;80.62;101483.81;5001538;28;20072;-60
2022/02/01 11:40:36;;;;;;;18.45;4.10;;;;;;;8.43;80.52;101458.38;5002112;28;20033;-59
2022/02/01 11:43:06;;;;;;;16.83;4.05;;;;;;;8.51;80.69;101467.91;4993445;28;20018;-60
2022/02/01 11:45:37;;;;;;;18.77;3.30;;;;;;;8.54;80.77;101446.88;4990143;28;20123;-61
2022/02/01 11:48:15;;;;;;;12.40;4.10;;;;;;;8.51;80.61;101453.03;4981328;28;20022;-60
2022/02/01 11:50:49;;;;;;;15.57;3.20;;;;;;;8.66;80.07;101451.06;4983318;28;20030;-59
2022/02/01 11:53:31;;;;;;;26.80;4.22;;;;;;;8.66;80.03;101451.94;5001141;28;20334;-60
2022/02/01 11:55:57;;;;;;;14.35;3.10;;;;;;;8.71;80.27;101430.88;5002057;28;20101;-61
2022/02/01 11:58:37;;;;;;;16.20;3.78;;;;;;;8.76;79.61;101452.66;5011273;28;20494;-61
2022/02/01 12:01:07;;;;;;;20.88;3.63;;;;;;;8.84;79.47;101449.91;5022098;28;20700;-62
2022/02/01 12:03:37;;;;;;;13.05;3.45;;;;;;;8.82;79.67;101449.94;5020526;28;20025;-59
2022/02/01 12:06:07;;;;;;;;;;;;;;;8.97;78.85;101434.78;5022040;28;20025;-61
2022/02/01 12:08:33;;;;;;;17.50;3.90;;;;;;;8.99;78.88;101459.31;5002845;28;20387;-59
2022/02/01 12:11:01;;;;;;;20.77;3.95;;;;;;;8.92;79.07;101427.00;5002731;28;20071;-60
2022/02/01 12:13:27;;;;;;;21.33;4.72;;;;;;;8.93;79.18;101496.19;5002313;28;20028;-61
2022/02/01 12:15:55;;;;;;;21.08;3.00;;;;;;;9.01;78.84;101411.97;4998604;28;20033;-61
2022/02/01 12:18:34;;;;;;;21.40;3.75;;;;;;;9.02;78.54;101422.44;4997007;28;20029;-59
2022/02/01 12:21:21;;;;;;;10.80;2.92;;;;;;;9.16;78.59;101413.44;4987612;28;20029;-61
2022/02/01 12:23:48;;;;;;;15.55;3.10;;;;;;;9.14;78.51;101395.06;4999960;28;20083;-60
2022/02/01 12:26:21;;;;;;;13.95;3.17;;;;;;;9.19;78.23;101409.00;4998002;28;20037;-61
2022/02/01 12:28:47;;;;;;;14.05;3.80;;;;;;;9.33;77.94;101400.81;4984937;28;20040;-59
2022/02/01 12:31:14;;;;;;;14.15;3.55;;;;;;;9.30;77.70;101408.78;4991552;28;20018;-61
2022/02/01 12:33:42;;;;;;;25.48;3.67;;;;;;;9.43;77.58;101396.28;5001263;28;20025;-61
2022/02/01 12:36:08;;;;;;;15.85;3.35;;;;;;;9.46;77.61;101446.16;5005218;28;20057;-60
2022/02/01 12:38:33;;;;;;;16.60;4.07;;;;;;;9.39;77.73;101412.13;5009135;28;20025;-61
2022/02/01 12:41:12;;;;;;;16.60;3.85;;;;;;;9.49;77.29;101411.06;4993003;28;20018;-61
2022/02/01 12:46:40;;;;;;;14.73;2.92;;;;;;;9.48;77.41;101383.00;5004223;28;20087;-62
2022/02/01 12:49:05;;;;;;;16.40;3.40;;;;;;;9.52;77.40;101382.06;5006821;28;20029;-60
2022/02/01 12:51:45;;;;;;;16.75;3.28;;;;;;;9.62;76.94;101380.09;5001332;28;20086;-61
2022/02/01 12:54:26;;;;;;;13.85;3.40;;;;;;;9.69;76.34;101371.16;5002984;28;20040;-56
2022/02/01 12:57:07;;;;;;;11.50;3.17;;;;;;;9.64;76.47;101364.28;4991407;28;20076;-57
2022/02/01 12:59:47;;;;;;;18.38;3.97;;;;;;;9.76;76.38;101366.66;4985512;28;20041;-64
2022/02/01 13:02:17;;;;;;;16.23;3.33;;;;;;;9.76;76.23;101371.91;4998480;28;20036;-59
2022/02/01 13:04:43;;;;;;;11.07;2.92;;;;;;;9.79;75.65;101379.75;4993655;28;20117;-62
2022/02/01 13:07:19;;;;;;;22.30;3.75;;;;;;;9.95;76.03;101358.31;4994021;28;20037;-57